Time;durP1;ratioP1;P1;durP2;ratioP2;P2;SDS_P1;SDS_P2;PMS_P1;PMS_P2;Temp;Humidity;BMP_temperature;BMP_pressure;BME280_temperature;BME280_humidity;BME280_pressure;Samples;Min_cycle;Max_cycle;Signal;HPM_P1;HPM_P2
2023/11/14 00:00:39;;;;;;;28.77;6.17;;;12.40;99.90;;;;;;4960314;28;20219;-90
2023/11/14 00:03:05;;;;;;;23.70;6.00;;;12.40;99.90;;;;;;4962780;28;20663;-90
2023/11/14 00:05:36;;;;;;;29.20;6.30;;;12.40;99.90;;;;;;4960755;28;20219;-90
2023/11/14 00:08:05;;;;;;;26.20;6.07;;;12.50;99.90;;;;;;4954467;28;20214;-91
2023/11/14 00:10:30;;;;;;;22.60;5.40;;;12.40;99.90;;;;;;4951281;29;20203;-90
2023/11/14 00:12:57;;;;;;;22.33;5.93;;;12.40;99.90;;;;;;4956220;28;20730;-90
2023/11/14 00:15:24;;;;;;;25.30;5.57;;;12.40;99.90;;;;;;4962458;28;20266;-91
2023/11/14 00:17:50;;;;;;;22.77;5.97;;;12.40;99.90;;;;;;4947098;29;20209;-89
2023/11/14 00:20:16;;;;;;;27.03;6.17;;;12.40;99.90;;;;;;4951321;28;20184;-90
2023/11/14 00:22:42;;;;;;;22.87;5.17;;;12.50;99.90;;;;;;4952499;29;20195;-93
2023/11/14 00:25:08;;;;;;;27.90;6.47;;;12.50;99.90;;;;;;4957424;29;20313;-90
2023/11/14 00:27:37;;;;;;;19.00;4.93;;;12.50;99.90;;;;;;4961822;29;20195;-91
2023/11/14 00:30:06;;;;;;;25.37;6.23;;;12.50;99.90;;;;;;4967004;28;20260;-92
2023/11/14 00:32:32;;;;;;;23.63;6.20;;;12.60;99.90;;;;;;4955099;29;20218;-89
2023/11/14 00:34:58;;;;;;;22.10;6.37;;;12.50;99.90;;;;;;4960223;29;20194;-89
2023/11/14 00:37:25;;;;;;;22.43;5.23;;;12.50;99.90;;;;;;4968373;29;20252;-93
2023/11/14 00:39:50;;;;;;;23.23;6.23;;;12.60;99.90;;;;;;4926330;29;20192;-90
2023/11/14 00:42:16;;;;;;;31.70;6.63;;;12.50;99.90;;;;;;4941147;29;20184;-92
2023/11/14 00:44:42;;;;;;;28.07;5.63;;;12.50;99.90;;;;;;4940923;29;20184;-92
2023/11/14 00:47:08;;;;;;;24.83;6.03;;;12.70;99.90;;;;;;4957511;29;20203;-89
2023/11/14 00:49:33;;;;;;;26.00;5.87;;;12.60;99.90;;;;;;4951393;29;20190;-89
2023/11/14 00:51:59;;;;;;;23.90;6.13;;;12.50;99.90;;;;;;4944656;29;20340;-89
2023/11/14 00:54:25;;;;;;;25.13;6.43;;;12.50;99.90;;;;;;4940854;29;20270;-89
2023/11/14 00:56:51;;;;;;;23.33;6.30;;;12.50;99.90;;;;;;4943087;29;20191;-89
2023/11/14 00:59:17;;;;;;;23.03;5.93;;;12.40;99.90;;;;;;4943592;29;20194;-89
2023/11/14 01:01:43;;;;;;;24.90;5.83;;;12.40;99.90;;;;;;4960705;28;20208;-88
2023/11/14 01:04:10;;;;;;;21.43;5.43;;;12.40;99.90;;;;;;4963238;28;20188;-88
2023/11/14 01:06:35;;;;;;;22.60;6.00;;;12.40;99.90;;;;;;4962962;28;20190;-88
2023/11/14 01:09:03;;;;;;;25.13;6.07;;;12.50;99.90;;;;;;4962477;28;20282;-89
2023/11/14 01:11:28;;;;;;;26.20;5.90;;;12.40;99.90;;;;;;4961934;28;20186;-89
2023/11/14 01:13:55;;;;;;;23.80;6.00;;;12.40;99.90;;;;;;4962565;28;20195;-89
2023/11/14 01:16:20;;;;;;;23.43;6.57;;;12.40;99.90;;;;;;4961178;28;20212;-88
2023/11/14 01:18:46;;;;;;;23.40;5.13;;;12.40;99.90;;;;;;4943855;29;20184;-89
2023/11/14 01:21:18;;;;;;;24.10;5.83;;;12.40;99.90;;;;;;4943100;29;20640;-87
2023/11/14 01:23:44;;;;;;;32.50;6.43;;;12.40;99.90;;;;;;4962774;28;20258;-88
2023/11/14 01:26:10;;;;;;;23.03;6.53;;;12.40;99.90;;;;;;4963390;28;20172;-89
2023/11/14 01:28:35;;;;;;;22.27;5.63;;;12.50;99.90;;;;;;4946251;28;20198;-87
2023/11/14 01:31:01;;;;;;;28.97;6.53;;;12.50;99.90;;;;;;4961720;28;20199;-87
2023/11/14 01:33:27;;;;;;;27.87;5.67;;;12.50;99.90;;;;;;4962047;28;20227;-90
2023/11/14 01:35:53;;;;;;;22.43;5.53;;;12.60;99.90;;;;;;4968050;28;20185;-88
2023/11/14 01:38:19;;;;;;;24.77;5.63;;;12.60;99.90;;;;;;4965537;28;20195;-90
2023/11/14 01:40:50;;;;;;;32.93;7.00;;;12.60;99.90;;;;;;4985484;28;20180;-89
2023/11/14 01:43:16;;;;;;;23.77;5.73;;;12.40;99.90;;;;;;4990878;28;20307;-88
2023/11/14 01:45:42;;;;;;;25.07;5.80;;;12.50;99.90;;;;;;4968167;28;20192;-89
2023/11/14 01:48:12;;;;;;;21.57;4.97;;;12.50;99.90;;;;;;4964022;28;20718;-88
2023/11/14 01:50:39;;;;;;;24.97;6.00;;;12.50;99.90;;;;;;4966057;28;20186;-88
2023/11/14 01:53:07;;;;;;;22.43;5.27;;;12.40;99.90;;;;;;4953190;29;20313;-88
2023/11/14 01:55:34;;;;;;;24.27;5.37;;;12.40;99.90;;;;;;4941644;29;20176;-89
2023/11/14 01:58:01;;;;;;;19.60;5.40;;;12.40;99.90;;;;;;4943010;28;20243;-88
2023/11/14 02:00:28;;;;;;;24.13;5.83;;;12.30;99.90;;;;;;4956693;28;20198;-88
2023/11/14 02:02:54;;;;;;;24.03;6.43;;;12.30;99.90;;;;;;4952415;29;20267;-88
2023/11/14 02:05:21;;;;;;;24.37;6.43;;;12.30;99.90;;;;;;4949058;29;20182;-87
2023/11/14 02:07:47;;;;;;;26.83;6.03;;;12.40;99.90;;;;;;4964243;29;20169;-85
2023/11/14 02:10:12;;;;;;;27.23;6.37;;;12.40;99.90;;;;;;4982185;28;20194;-88
2023/11/14 02:12:38;;;;;;;22.57;5.87;;;12.40;99.90;;;;;;4976066;28;20220;-89
2023/11/14 02:15:12;;;;;;;21.90;5.83;;;12.40;99.90;;;;;;4965217;29;20197;-88
2023/11/14 02:17:43;;;;;;;22.37;5.63;;;12.40;99.90;;;;;;4947305;29;20219;-88
2023/11/14 02:20:21;;;;;;;25.80;5.93;;;12.50;99.90;;;;;;4942562;29;20191;-87
2023/11/14 02:22:47;;;;;;;24.43;5.63;;;12.50;99.90;;;;;;4941858;29;20191;-89
2023/11/14 02:25:12;;;;;;;29.87;6.03;;;12.40;99.90;;;;;;4959695;29;20656;-90
2023/11/14 02:27:38;;;;;;;20.00;5.27;;;12.30;99.90;;;;;;4941651;29;20189;-88
2023/11/14 02:30:05;;;;;;;18.20;5.47;;;12.20;99.90;;;;;;4955240;28;20265;-88
2023/11/14 02:32:31;;;;;;;22.90;5.67;;;12.20;99.90;;;;;;4945069;28;20216;-90
2023/11/14 02:34:57;;;;;;;25.10;5.40;;;12.20;99.90;;;;;;4960959;28;20183;-89
2023/11/14 02:37:23;;;;;;;19.07;5.80;;;12.30;99.90;;;;;;4964145;28;20204;-91
2023/11/14 02:39:48;;;;;;;21.33;5.30;;;12.20;99.90;;;;;;4973227;28;20177;-90
2023/11/14 02:42:14;;;;;;;20.97;5.53;;;12.20;99.90;;;;;;4980353;28;20198;-93
2023/11/14 02:44:40;;;;;;;28.73;6.57;;;12.20;99.90;;;;;;4953461;29;20197;-90
2023/11/14 02:47:09;;;;;;;24.40;5.37;;;12.20;99.90;;;;;;4954153;29;20178;-90
2023/11/14 02:49:56;;;;;;;18.27;5.23;;;12.30;99.90;;;;;;4940866;29;20219;-92
2023/11/14 02:52:23;;;;;;;30.93;5.97;;;12.10;99.90;;;;;;4941928;29;20407;-89
2023/11/14 02:54:50;;;;;;;24.33;6.00;;;12.10;99.90;;;;;;4949877;29;20326;-94
2023/11/14 02:57:18;;;;;;;24.87;6.47;;;12.10;99.90;;;;;;4959999;29;20197;-94
2023/11/14 02:59:48;;;;;;;21.00;4.90;;;12.10;99.90;;;;;;4952401;28;20365;-92
2023/11/14 03:02:13;;;;;;;23.77;5.67;;;12.10;99.90;;;;;;4983381;28;20199;-87
2023/11/14 03:04:39;;;;;;;30.97;5.90;;;12.10;99.90;;;;;;4971864;28;20207;-89
2023/11/14 03:07:05;;;;;;;24.60;5.57;;;12.10;99.90;;;;;;4983114;28;20180;-88
2023/11/14 03:09:30;;;;;;;26.33;5.43;;;12.10;99.90;;;;;;4963926;28;20195;-89
2023/11/14 03:12:01;;;;;;;26.53;6.33;;;12.20;99.90;;;;;;4963176;28;20735;-88
2023/11/14 03:14:26;;;;;;;20.00;5.10;;;12.10;99.90;;;;;;4963784;28;20169;-87
2023/11/14 03:16:52;;;;;;;20.13;4.60;;;12.10;99.90;;;;;;4960268;28;20215;-87
2023/11/14 03:19:18;;;;;;;20.30;5.13;;;12.10;99.90;;;;;;4959591;28;20284;-89
2023/11/14 03:21:44;;;;;;;23.93;6.13;;;12.10;99.90;;;;;;4949409;29;20327;-89
2023/11/14 03:24:11;;;;;;;21.97;5.27;;;12.00;99.90;;;;;;4940563;29;20213;-86
2023/11/14 03:26:37;;;;;;;18.17;4.90;;;12.00;99.90;;;;;;4955548;28;20195;-87
2023/11/14 03:29:02;;;;;;;23.33;5.73;;;12.00;99.90;;;;;;4944274;29;20267;-90
2023/11/14 03:31:28;;;;;;;20.73;5.07;;;12.00;99.90;;;;;;4955519;28;20370;-89
2023/11/14 03:33:54;;;;;;;18.73;5.50;;;12.10;99.90;;;;;;4960135;28;20220;-87
2023/11/14 03:36:20;;;;;;;24.30;5.80;;;12.10;99.90;;;;;;4965480;28;20197;-88
2023/11/14 03:38:45;;;;;;;25.97;6.13;;;12.00;99.90;;;;;;4960815;28;20209;-89
2023/11/14 03:41:12;;;;;;;29.97;5.40;;;12.00;99.90;;;;;;4957942;29;20185;-87
2023/11/14 03:43:40;;;;;;;21.50;4.63;;;12.00;99.90;;;;;;4955978;29;20198;-87
2023/11/14 03:46:06;;;;;;;25.60;6.07;;;12.00;99.90;;;;;;4954911;29;20212;-89
2023/11/14 03:48:32;;;;;;;25.67;5.73;;;12.00;99.90;;;;;;4964222;28;20230;-87
2023/11/14 03:50:58;;;;;;;22.53;6.20;;;11.90;99.90;;;;;;4977111;28;20189;-87
2023/11/14 03:53:23;;;;;;;23.80;5.70;;;11.90;99.90;;;;;;4966227;29;20220;-88
2023/11/14 03:55:49;;;;;;;22.20;5.57;;;12.00;99.90;;;;;;4955885;29;20192;-88
2023/11/14 03:58:17;;;;;;;27.90;6.00;;;11.90;99.90;;;;;;4956276;29;20194;-88
2023/11/14 04:00:42;;;;;;;21.67;5.03;;;11.90;99.90;;;;;;4945789;29;20186;-91
2023/11/14 04:03:08;;;;;;;21.87;5.53;;;12.10;99.90;;;;;;4950379;28;20211;-88
2023/11/14 04:05:34;;;;;;;22.53;5.27;;;12.10;99.90;;;;;;4964493;28;20650;-88
2023/11/14 04:08:01;;;;;;;30.10;6.27;;;12.10;99.90;;;;;;4955329;29;20281;-89
2023/11/14 04:10:29;;;;;;;27.00;6.67;;;12.00;99.90;;;;;;4940362;29;20196;-89
2023/11/14 04:12:55;;;;;;;23.63;5.67;;;12.00;99.90;;;;;;4940437;29;20223;-89
2023/11/14 04:15:22;;;;;;;27.00;5.40;;;12.00;99.90;;;;;;4969150;28;20221;-87
2023/11/14 04:17:48;;;;;;;24.93;5.37;;;12.10;99.90;;;;;;4962572;28;20215;-87
2023/11/14 04:20:14;;;;;;;19.37;5.63;;;12.00;99.90;;;;;;4949123;29;20192;-88
2023/11/14 04:22:44;;;;;;;20.87;5.40;;;12.00;99.90;;;;;;4942340;29;20253;-88
2023/11/14 04:25:13;;;;;;;24.43;5.77;;;12.10;99.90;;;;;;4940276;29;20699;-88
2023/11/14 04:27:39;;;;;;;21.80;5.10;;;12.20;99.90;;;;;;4957097;28;20704;-88
2023/11/14 04:30:05;;;;;;;27.37;5.03;;;12.00;99.90;;;;;;4940667;29;20191;-88
2023/11/14 04:32:31;;;;;;;24.50;5.27;;;12.00;99.90;;;;;;4940208;29;20372;-89
2023/11/14 04:34:57;;;;;;;22.87;5.57;;;12.10;99.90;;;;;;4955550;28;20192;-88
2023/11/14 04:37:23;;;;;;;23.53;5.37;;;12.10;99.90;;;;;;4958024;29;20201;-88
2023/11/14 04:39:49;;;;;;;24.57;5.20;;;12.10;99.90;;;;;;4951962;29;20203;-88
2023/11/14 04:42:15;;;;;;;26.53;5.80;;;12.20;99.90;;;;;;4951296;28;20190;-87
2023/11/14 04:44:40;;;;;;;23.73;5.73;;;11.90;99.90;;;;;;4947667;29;20268;-88
2023/11/14 04:47:07;;;;;;;20.73;4.97;;;12.10;99.90;;;;;;4945130;29;20617;-88
2023/11/14 04:49:34;;;;;;;22.00;5.20;;;12.00;99.90;;;;;;4954261;28;20193;-87
2023/11/14 04:52:00;;;;;;;23.10;6.00;;;12.30;99.90;;;;;;4960145;28;20219;-87
2023/11/14 04:54:27;;;;;;;30.17;5.83;;;12.10;99.90;;;;;;4947516;29;20612;-88
2023/11/14 04:56:54;;;;;;;26.40;6.57;;;12.00;99.90;;;;;;4948434;28;20229;-87
2023/11/14 04:59:20;;;;;;;23.30;5.57;;;12.00;99.90;;;;;;4956253;29;20173;-89
2023/11/14 05:01:47;;;;;;;25.27;6.03;;;11.90;99.90;;;;;;4957662;29;20219;-88
2023/11/14 05:04:12;;;;;;;20.53;4.77;;;11.90;99.90;;;;;;4961704;29;20194;-88
2023/11/14 05:06:38;;;;;;;22.13;5.77;;;11.90;99.90;;;;;;4961625;28;20182;-87
2023/11/14 05:09:05;;;;;;;17.80;5.33;;;12.00;99.90;;;;;;4952643;29;20188;-88
2023/11/14 05:11:36;;;;;;;23.30;5.17;;;11.90;99.90;;;;;;4951340;29;20185;-86
2023/11/14 05:14:06;;;;;;;27.47;5.50;;;11.80;99.90;;;;;;4935353;29;20214;-90
2023/11/14 05:16:38;;;;;;;24.37;5.97;;;11.90;99.90;;;;;;4953952;28;20260;-90
2023/11/14 05:19:04;;;;;;;25.40;5.57;;;12.00;99.90;;;;;;4959950;28;20190;-88
2023/11/14 05:21:30;;;;;;;21.93;5.13;;;11.90;99.90;;;;;;4969063;28;20356;-91
2023/11/14 05:23:55;;;;;;;18.80;4.93;;;11.90;99.90;;;;;;4960791;29;20201;-87
2023/11/14 05:26:22;;;;;;;18.03;4.87;;;12.00;99.90;;;;;;4942220;29;20241;-88
2023/11/14 05:28:49;;;;;;;17.97;5.23;;;12.10;99.90;;;;;;4944341;28;20193;-88
2023/11/14 05:31:15;;;;;;;21.93;4.97;;;12.20;99.90;;;;;;4951189;28;20208;-91
2023/11/14 05:33:41;;;;;;;26.57;5.27;;;12.20;99.90;;;;;;4955396;28;20232;-89
2023/11/14 05:36:07;;;;;;;21.47;4.83;;;12.10;99.90;;;;;;4961050;28;20184;-90
2023/11/14 05:38:33;;;;;;;21.40;5.63;;;12.10;99.90;;;;;;4955532;28;20176;-88
2023/11/14 05:40:59;;;;;;;24.50;5.40;;;12.10;99.90;;;;;;4968566;28;20180;-90
2023/11/14 05:43:24;;;;;;;21.20;4.93;;;12.00;99.90;;;;;;4982121;28;20169;-90
2023/11/14 05:45:51;;;;;;;22.40;5.87;;;12.00;99.90;;;;;;4983330;28;20166;-89
2023/11/14 05:48:19;;;;;;;19.90;4.67;;;12.00;99.90;;;;;;4978256;28;20219;-91
2023/11/14 05:50:46;;;;;;;20.77;4.93;;;12.10;99.90;;;;;;4973706;28;20233;-91
2023/11/14 05:53:12;;;;;;;15.17;5.00;;;12.10;99.90;;;;;;4959946;29;20251;-89
2023/11/14 05:55:44;;;;;;;20.97;5.50;;;12.20;99.90;;;;;;4976933;28;20179;-88
2023/11/14 05:58:12;;;;;;;21.17;5.13;;;12.20;99.90;;;;;;4963561;28;20614;-88
2023/11/14 06:00:38;;;;;;;24.03;4.97;;;12.20;99.90;;;;;;4945501;28;20237;-88
2023/11/14 06:03:07;;;;;;;19.63;5.10;;;12.30;99.90;;;;;;4964431;28;20192;-88
2023/11/14 06:05:32;;;;;;;18.10;3.87;;;12.20;99.90;;;;;;4979483;28;20182;-90
2023/11/14 06:07:59;;;;;;;19.53;5.03;;;12.20;99.90;;;;;;4963062;29;20168;-88
2023/11/14 06:10:25;;;;;;;19.43;5.20;;;12.20;99.90;;;;;;4976360;28;20191;-89
2023/11/14 06:12:54;;;;;;;16.77;4.80;;;12.30;99.90;;;;;;4990250;28;20221;-88
2023/11/14 06:15:24;;;;;;;23.93;4.93;;;12.30;99.90;;;;;;4961850;28;20211;-94
2023/11/14 06:17:55;;;;;;;17.13;4.60;;;12.20;99.90;;;;;;4924804;28;1172501;-89
2023/11/14 06:20:24;;;;;;;22.37;5.17;;;12.20;99.90;;;;;;4964877;28;20256;-90
2023/11/14 06:22:50;;;;;;;21.77;5.17;;;12.20;99.90;;;;;;4942943;29;20677;-93
2023/11/14 06:25:18;;;;;;;21.00;4.80;;;12.20;99.90;;;;;;4966697;28;20235;-90
2023/11/14 06:27:45;;;;;;;25.77;5.20;;;12.20;99.90;;;;;;4966887;28;20198;-89
2023/11/14 06:30:13;;;;;;;30.73;5.53;;;12.20;99.90;;;;;;4969423;28;20178;-90
2023/11/14 06:32:42;;;;;;;22.70;5.63;;;12.10;99.90;;;;;;4954230;29;20245;-92
2023/11/14 06:35:08;;;;;;;20.70;4.93;;;12.00;99.90;;;;;;4969066;28;20664;-89
2023/11/14 06:37:36;;;;;;;26.03;5.47;;;12.00;99.90;;;;;;4940659;28;20254;-89
2023/11/14 06:40:05;;;;;;;21.03;5.67;;;12.00;99.90;;;;;;4971214;28;20200;-90
2023/11/14 06:42:31;;;;;;;18.33;5.00;;;12.10;99.90;;;;;;4950546;28;20645;-93
2023/11/14 06:44:57;;;;;;;18.27;5.00;;;12.10;99.90;;;;;;4957386;28;20218;-94
2023/11/14 06:47:23;;;;;;;26.17;5.23;;;12.10;99.90;;;;;;4983784;23;20226;-89
2023/11/14 06:49:48;;;;;;;22.07;5.43;;;12.10;99.90;;;;;;4999200;28;20331;-88
2023/11/14 06:52:15;;;;;;;28.40;6.13;;;12.20;99.90;;;;;;5001203;28;20266;-89
2023/11/14 06:54:41;;;;;;;24.37;5.67;;;12.10;99.90;;;;;;4996014;28;20190;-87
2023/11/14 06:57:09;;;;;;;25.03;5.70;;;12.10;99.90;;;;;;5006458;28;20245;-85
2023/11/14 06:59:38;;;;;;;33.40;5.57;;;12.10;99.90;;;;;;4997406;28;20312;-89
2023/11/14 07:02:05;;;;;;;21.67;4.77;;;12.20;99.90;;;;;;4992485;28;20200;-86
2023/11/14 07:04:38;;;;;;;20.20;5.43;;;12.30;99.90;;;;;;5003881;28;20180;-91
2023/11/14 07:07:05;;;;;;;21.70;5.30;;;12.30;91.20;;;;;;5020985;28;20186;-91
2023/11/14 07:09:31;;;;;;;17.90;5.00;;;12.30;91.40;;;;;;4986578;28;20222;-93
2023/11/14 07:11:57;;;;;;;26.77;5.50;;;12.50;88.30;;;;;;5020487;28;20267;-90
2023/11/14 07:14:25;;;;;;;23.83;5.57;;;12.20;90.60;;;;;;4988535;28;20194;-90
2023/11/14 07:16:54;;;;;;;22.10;6.10;;;12.20;91.90;;;;;;4981575;28;20195;-89
2023/11/14 07:19:21;;;;;;;25.80;5.73;;;12.30;91.60;;;;;;4982828;28;20183;-90
2023/11/14 07:21:49;;;;;;;16.27;5.77;;;12.50;90.50;;;;;;4982155;28;20644;-86
2023/11/14 07:24:16;;;;;;;22.83;5.67;;;12.40;88.10;;;;;;5005651;28;20284;-88
2023/11/14 07:26:44;;;;;;;19.50;4.90;;;12.40;84.40;;;;;;5009600;28;20250;-89
2023/11/14 07:29:11;;;;;;;25.83;6.03;;;12.30;89.70;;;;;;5004285;28;20209;-92
2023/11/14 07:31:36;;;;;;;19.97;5.17;;;12.30;91.80;;;;;;4999304;28;20181;-90
2023/11/14 07:34:03;;;;;;;25.17;5.60;;;12.40;91.50;;;;;;4967346;28;20224;-94
2023/11/14 07:36:29;;;;;;;20.97;5.50;;;12.40;91.10;;;;;;4986830;28;20206;-89
2023/11/14 07:38:54;;;;;;;24.43;6.00;;;12.40;92.30;;;;;;4969366;28;20263;-89
2023/11/14 07:41:20;;;;;;;27.07;4.83;;;12.50;90.80;;;;;;4984572;28;20208;-89
2023/11/14 07:43:46;;;;;;;19.07;5.10;;;12.50;86.20;;;;;;4987767;28;20221;-89
2023/11/14 07:46:18;;;;;;;21.27;5.13;;;12.50;88.70;;;;;;4986381;28;20180;-90
2023/11/14 07:48:44;;;;;;;21.53;5.10;;;12.40;91.40;;;;;;4985934;28;20206;-89
2023/11/14 07:51:10;;;;;;;19.43;5.17;;;12.40;91.70;;;;;;4983791;28;20189;-90
2023/11/14 07:53:36;;;;;;;26.17;5.60;;;12.40;93.00;;;;;;4988515;28;20216;-90
2023/11/14 07:56:32;;;;;;;19.30;4.67;;;12.40;93.80;;;;;;4994058;28;20174;-91
2023/11/14 07:59:05;;;;;;;22.40;5.10;;;12.40;94.30;;;;;;5015540;28;20186;-90
2023/11/14 08:01:31;;;;;;;18.83;5.07;;;12.40;95.00;;;;;;5000447;28;20189;-88
2023/11/14 08:03:58;;;;;;;18.93;5.47;;;12.40;94.90;;;;;;5018052;28;20207;-89
2023/11/14 08:06:25;;;;;;;24.37;5.90;;;12.30;97.30;;;;;;5019192;28;20195;-91
2023/11/14 08:08:53;;;;;;;21.37;4.73;;;12.40;97.60;;;;;;5009997;28;20186;-91
2023/11/14 08:11:22;;;;;;;21.90;4.50;;;12.40;98.10;;;;;;5007988;28;20266;-90
2023/11/14 08:13:47;;;;;;;21.00;4.93;;;12.40;97.20;;;;;;5013168;28;20287;-89
2023/11/14 08:16:15;;;;;;;24.27;6.00;;;12.40;98.00;;;;;;5006931;28;20179;-90
2023/11/14 08:18:41;;;;;;;19.73;5.57;;;12.50;98.90;;;;;;4999273;28;20298;-92
2023/11/14 08:21:09;;;;;;;16.50;4.50;;;12.40;95.20;;;;;;4999283;28;20200;-93
2023/11/14 08:23:35;;;;;;;18.97;5.00;;;12.50;92.50;;;;;;5000464;28;20206;-90
2023/11/14 08:26:01;;;;;;;17.80;5.20;;;12.70;88.90;;;;;;5022699;28;20197;-90
2023/11/14 08:28:27;;;;;;;16.13;5.00;;;12.50;89.30;;;;;;5007216;28;20560;-92
2023/11/14 08:30:53;;;;;;;16.27;4.87;;;12.60;88.20;;;;;;4999630;28;20658;-91
2023/11/14 08:33:18;;;;;;;23.70;5.10;;;12.60;85.80;;;;;;4999240;28;20222;-90
2023/11/14 08:35:45;;;;;;;23.90;5.70;;;12.60;90.60;;;;;;4998280;28;20186;-90
2023/11/14 08:38:12;;;;;;;23.77;5.53;;;12.50;93.40;;;;;;5003889;28;20220;-91
2023/11/14 08:40:37;;;;;;;18.70;5.53;;;12.50;97.70;;;;;;4999280;28;20180;-91
2023/11/14 08:43:03;;;;;;;22.33;5.17;;;12.30;99.90;;;;;;4999383;28;20277;-91
2023/11/14 08:45:29;;;;;;;24.10;4.77;;;12.30;99.90;;;;;;5000563;28;20179;-91
2023/11/14 08:47:56;;;;;;;22.73;5.33;;;12.40;99.90;;;;;;5004882;28;20205;-91
2023/11/14 08:50:23;;;;;;;29.87;5.47;;;12.30;99.90;;;;;;5000079;28;20183;-91
2023/11/14 08:52:50;;;;;;;19.00;5.00;;;12.40;99.90;;;;;;5000039;28;20240;-90
2023/11/14 08:55:17;;;;;;;22.47;5.40;;;12.30;99.90;;;;;;5007887;28;20172;-89
2023/11/14 08:57:42;;;;;;;23.23;5.63;;;12.20;99.90;;;;;;5012687;28;20202;-92
2023/11/14 09:00:12;;;;;;;19.63;5.33;;;12.20;99.90;;;;;;4999989;28;20227;-93
2023/11/14 09:02:38;;;;;;;24.73;5.77;;;12.20;99.90;;;;;;4999460;28;20195;-92
2023/11/14 09:05:04;;;;;;;22.27;5.73;;;12.20;99.90;;;;;;4998911;28;20208;-92
2023/11/14 09:07:29;;;;;;;28.83;6.17;;;12.30;99.90;;;;;;4998711;28;20792;-93
2023/11/14 09:09:55;;;;;;;18.37;5.33;;;12.40;99.90;;;;;;4999376;28;20174;-92
2023/11/14 09:12:21;;;;;;;16.97;5.00;;;12.40;99.90;;;;;;4999076;28;20305;-92
2023/11/14 09:14:46;;;;;;;25.43;5.47;;;12.40;99.90;;;;;;5000510;28;20230;-91
2023/11/14 09:17:12;;;;;;;22.27;5.47;;;12.30;99.90;;;;;;5012394;28;20215;-93
2023/11/14 09:19:38;;;;;;;22.77;5.67;;;12.30;99.90;;;;;;5024413;28;20202;-91
2023/11/14 09:22:05;;;;;;;24.63;6.40;;;12.50;99.90;;;;;;5023259;28;20176;-91
2023/11/14 09:24:31;;;;;;;15.40;4.37;;;12.30;99.90;;;;;;5024631;28;20207;-92
2023/11/14 09:27:00;;;;;;;14.80;3.80;;;12.20;99.90;;;;;;5004824;28;20182;-91
2023/11/14 09:29:38;;;;;;;8.37;2.30;;;12.10;99.90;;;;;;5003566;28;20183;-92
2023/11/14 09:32:04;;;;;;;7.70;2.20;;;12.00;99.90;;;;;;5007605;28;20246;-90
2023/11/14 09:34:31;;;;;;;7.53;2.40;;;12.10;98.40;;;;;;5004340;28;20229;-93
2023/11/14 09:36:57;;;;;;;7.63;2.40;;;12.20;94.70;;;;;;4994942;28;20186;-92
2023/11/14 09:39:23;;;;;;;13.60;3.70;;;12.30;93.60;;;;;;4989914;28;20641;-94
2023/11/14 09:41:56;;;;;;;20.53;11.90;;;12.30;95.70;;;;;;4987402;28;20189;-92
2023/11/14 09:44:25;;;;;;;13.83;5.93;;;12.30;99.00;;;;;;4987203;28;20193;-94
2023/11/14 09:46:55;;;;;;;16.73;4.30;;;12.30;99.90;;;;;;4987703;28;20196;-93
2023/11/14 09:49:21;;;;;;;18.37;5.27;;;12.40;99.90;;;;;;4987766;28;20269;-92
2023/11/14 09:51:48;;;;;;;20.73;7.27;;;12.40;99.90;;;;;;4986585;28;20268;-92
2023/11/14 09:54:17;;;;;;;20.07;5.83;;;12.40;99.90;;;;;;4986473;28;20191;-92
2023/11/14 09:56:50;;;;;;;20.63;6.57;;;12.50;99.90;;;;;;4991076;28;20425;-92
2023/11/14 09:59:19;;;;;;;25.00;7.73;;;12.50;99.90;;;;;;4990435;28;20202;-94
2023/11/14 10:01:47;;;;;;;21.97;6.27;;;12.40;99.90;;;;;;4988326;28;20185;-92
2023/11/14 10:04:13;;;;;;;20.47;5.60;;;12.50;99.90;;;;;;4987807;28;20187;-92
2023/11/14 10:06:44;;;;;;;20.43;6.07;;;12.50;99.90;;;;;;4989935;28;20195;-92
2023/11/14 10:09:16;;;;;;;25.27;5.73;;;12.60;99.90;;;;;;4995815;28;20196;-96
2023/11/14 10:11:47;;;;;;;24.00;6.73;;;12.70;99.90;;;;;;4985656;28;20206;-95
2023/11/14 10:14:19;;;;;;;22.00;6.53;;;12.70;99.90;;;;;;5002545;28;20258;-92
2023/11/14 10:16:45;;;;;;;23.20;6.23;;;12.80;99.90;;;;;;4988338;28;20246;-91
2023/11/14 10:19:14;;;;;;;24.87;5.23;;;12.80;99.90;;;;;;4987224;28;20288;-93
2023/11/14 10:21:42;;;;;;;17.63;4.83;;;12.70;99.90;;;;;;4988189;28;20188;-96
2023/11/14 10:24:16;;;;;;;19.60;5.50;;;12.70;99.90;;;;;;4989770;28;20214;-95
2023/11/14 10:26:53;;;;;;;15.13;4.53;;;12.50;99.90;;;;;;4994100;28;20214;-95
2023/11/14 10:29:21;;;;;;;14.33;4.60;;;12.60;99.90;;;;;;4991916;28;20205;-95
2023/11/14 10:31:49;;;;;;;17.93;4.47;;;12.60;99.90;;;;;;4990496;28;20550;-95
2023/11/14 10:34:30;;;;;;;17.73;4.37;;;12.70;99.90;;;;;;4993868;28;20178;-92
2023/11/14 10:36:57;;;;;;;12.07;4.00;;;12.70;99.90;;;;;;4998358;28;20283;-93
2023/11/14 10:39:24;;;;;;;13.50;4.30;;;12.70;99.90;;;;;;4982632;28;20180;-92
2023/11/14 10:41:52;;;;;;;11.23;3.67;;;12.70;99.90;;;;;;4983171;28;20232;-90
2023/11/14 10:44:18;;;;;;;15.23;4.40;;;12.70;99.90;;;;;;4983980;28;20592;-93
2023/11/14 10:46:52;;;;;;;14.47;3.90;;;12.70;99.90;;;;;;4995837;28;20206;-92
2023/11/14 10:49:23;;;;;;;15.37;4.30;;;12.60;99.90;;;;;;4993944;28;20201;-92
2023/11/14 10:51:50;;;;;;;19.10;4.87;;;12.50;99.90;;;;;;4985550;28;20232;-92
2023/11/14 10:54:18;;;;;;;21.97;5.90;;;12.40;99.90;;;;;;4987061;28;20189;-92
2023/11/14 10:56:45;;;;;;;19.27;5.53;;;12.40;99.90;;;;;;4995694;28;20190;-90
2023/11/14 10:59:20;;;;;;;20.87;6.03;;;12.50;99.90;;;;;;5017852;28;20314;-92
2023/11/14 11:01:47;;;;;;;25.23;5.67;;;12.50;99.90;;;;;;5008343;28;20191;-91
2023/11/14 11:04:16;;;;;;;17.80;4.97;;;12.70;99.90;;;;;;5011430;28;20190;-91
2023/11/14 11:06:47;;;;;;;20.37;5.20;;;12.60;99.90;;;;;;5006254;28;20182;-93
2023/11/14 11:09:20;;;;;;;21.30;4.80;;;12.70;99.90;;;;;;5020881;28;20192;-91
2023/11/14 11:11:52;;;;;;;20.70;5.83;;;12.90;99.90;;;;;;5001927;28;20249;-91
2023/11/14 11:14:21;;;;;;;19.20;5.00;;;12.80;99.90;;;;;;5002147;28;20257;-91
2023/11/14 11:16:49;;;;;;;16.93;4.53;;;12.80;99.90;;;;;;5002264;28;20196;-92
2023/11/14 11:19:21;;;;;;;21.47;5.57;;;12.90;99.90;;;;;;5003935;28;20642;-91
2023/11/14 11:22:09;;;;;;;19.77;5.20;;;12.80;99.90;;;;;;5004529;28;20186;-91
2023/11/14 11:24:35;;;;;;;23.73;4.80;;;12.90;99.90;;;;;;5001160;28;20214;-93
2023/11/14 11:27:21;;;;;;;21.73;4.67;;;12.90;99.90;;;;;;5001717;28;20301;-92
2023/11/14 11:29:54;;;;;;;19.83;5.03;;;12.90;99.90;;;;;;5004082;28;20211;-92
2023/11/14 11:32:35;;;;;;;21.57;4.80;;;12.80;99.90;;;;;;5021407;28;20213;-90
2023/11/14 11:35:19;;;;;;;19.80;4.87;;;12.70;99.90;;;;;;5002879;28;20186;-91
2023/11/14 11:37:52;;;;;;;22.03;4.60;;;12.70;99.90;;;;;;5005736;28;20661;-91
2023/11/14 11:40:25;;;;;;;18.77;4.37;;;12.60;99.90;;;;;;5012735;28;20253;-91
2023/11/14 11:42:53;;;;;;;21.03;4.77;;;12.60;99.90;;;;;;5022393;28;20195;-89
2023/11/14 11:45:32;;;;;;;21.93;4.93;;;12.60;99.90;;;;;;5021764;28;20171;-91
2023/11/14 11:47:59;;;;;;;20.77;5.07;;;12.60;99.90;;;;;;5015123;28;20191;-91
2023/11/14 11:50:29;;;;;;;19.73;4.53;;;12.70;99.90;;;;;;5018478;28;20201;-92
2023/11/14 11:53:14;;;;;;;24.70;4.97;;;12.70;99.90;;;;;;5017358;28;20233;-94
2023/11/14 11:55:42;;;;;;;16.23;4.17;;;12.70;99.90;;;;;;5022891;28;20185;-93
2023/11/14 11:58:09;;;;;;;18.73;5.10;;;12.70;99.90;;;;;;5003342;28;20193;-92
2023/11/14 12:00:38;;;;;;;18.27;4.80;;;12.70;99.90;;;;;;5006426;28;20190;-91
2023/11/14 12:03:07;;;;;;;17.10;4.23;;;12.70;99.90;;;;;;5006262;28;20177;-92
2023/11/14 12:05:33;;;;;;;14.33;4.27;;;12.70;99.90;;;;;;5017486;28;20189;-92
2023/11/14 12:08:00;;;;;;;15.43;3.80;;;12.70;99.90;;;;;;5019702;28;20182;-92
2023/11/14 12:10:26;;;;;;;14.83;3.70;;;12.70;99.90;;;;;;5034956;28;20222;-91
2023/11/14 12:12:59;;;;;;;13.53;3.53;;;12.60;99.90;;;;;;5034123;28;20230;-92
2023/11/14 12:15:31;;;;;;;10.70;3.63;;;12.60;99.90;;;;;;5018042;28;20187;-93
2023/11/14 12:17:59;;;;;;;8.87;3.30;;;12.40;99.90;;;;;;5037272;28;20180;-90
2023/11/14 12:21:05;;;;;;;8.37;2.43;;;12.10;85.20;;;;;;5038167;28;20236;-90
2023/11/14 12:23:35;;;;;;;8.47;2.83;;;12.20;43.50;;;;;;5019359;28;20206;-90
2023/11/14 12:26:00;;;;;;;10.23;4.60;;;12.00;39.00;;;;;;5019186;28;20209;-91
2023/11/14 12:29:05;;;;;;;8.27;3.37;;;11.80;29.30;;;;;;5016137;28;20187;-91
2023/11/14 12:31:37;;;;;;;8.47;1.90;;;11.90;11.10;;;;;;5012601;28;20178;-93
2023/11/14 12:34:04;;;;;;;7.73;2.60;;;11.90;1.00;;;;;;5009976;28;20236;-91
2023/11/14 12:36:33;;;;;;;8.70;2.70;;;12.10;1.00;;;;;;5007741;28;20179;-92
2023/11/14 12:39:19;;;;;;;6.67;2.97;;;12.20;1.00;;;;;;5023872;28;20199;-95
2023/11/14 12:41:46;;;;;;;7.87;3.43;;;12.30;1.00;;;;;;5008639;28;20179;-91